| time (UTC) | temp F | wind direction | speed knots | gust knots | rain 1hr in | rain 24hr in | rain mn in | humidity % | barometer mb |
| 20260505224003 | 57 | 202 | 1.7 | 4.3 | 0.00 | 0.00 | 0.00 | 79 | 1019.2 |
| 20260505223502 | 57 | 202 | 1.7 | 4.3 | 0.00 | 0.00 | 0.00 | 80 | 1019.2 |
| 20260505223002 | 57 | 202 | 0.9 | 3.5 | 0.00 | 0.00 | 0.00 | 80 | 1019.2 |
| 20260505222502 | 56 | 202 | 0.9 | 3.5 | 0.00 | 0.00 | 0.00 | 80 | 1019.1 |
| 20260505222003 | 56 | 202 | 0.9 | 3.5 | 0.00 | 0.00 | 0.00 | 80 | 1019.1 |
| 20260505221523 | 56 | 202 | 0.9 | 3.5 | 0.00 | 0.00 | 0.00 | 81 | 1019.1 |
| 20260505221023 | 56 | 202 | 0.9 | 3.5 | 0.00 | 0.00 | 0.00 | 81 | 1019.2 |
| 20260505220503 | 55 | 201 | 0.9 | 6.1 | 0.00 | 0.00 | 0.00 | 80 | 1019.2 |
| 20260505220003 | 55 | 198 | 1.7 | 6.1 | 0.00 | 0.00 | 0.00 | 81 | 1019.2 |
| 20260505215503 | 55 | 196 | 1.7 | 4.3 | 0.00 | 0.00 | 0.00 | 82 | 1019.2 |
| 20260505215002 | 54 | 196 | 1.7 | 4.3 | 0.00 | 0.00 | 0.00 | 83 | 1019.2 |
| 20260505214502 | 54 | 195 | 0.9 | 2.6 | 0.00 | 0.00 | 0.00 | 83 | 1019.2 |
| 20260505214002 | 54 | 195 | 0.9 | 3.5 | 0.00 | 0.00 | 0.00 | 83 | 1019.2 |
| 20260505213503 | 54 | 195 | 0.9 | 3.5 | 0.00 | 0.00 | 0.00 | 83 | 1019.2 |
| 20260505213002 | 53 | 195 | 1.7 | 3.5 | 0.00 | 0.00 | 0.00 | 83 | 1019.2 |
| 20260505212502 | 53 | 195 | 1.7 | 3.5 | 0.00 | 0.00 | 0.00 | 83 | 1019.1 |
| 20260505212024 | 53 | 194 | 1.7 | 3.5 | 0.00 | 0.00 | 0.00 | 83 | 1019.1 |
| 20260505211502 | 52 | 193 | 1.7 | 3.5 | 0.00 | 0.00 | 0.00 | 84 | 1019.1 |
| 20260505211002 | 52 | 193 | 0.9 | 3.5 | 0.00 | 0.00 | 0.00 | 85 | 1019.1 |
| 20260505210502 | 52 | 193 | 0.9 | 3.5 | 0.00 | 0.00 | 0.00 | 85 | 1019.0 |
| 20260505210002 | 52 | 0 | 0.0 | 0.0 | 0.00 | 0.00 | 0.00 | 85 | 1019.0 |
| 20260505205503 | 52 | 0 | 0.0 | 0.0 | 0.00 | 0.00 | 0.00 | 85 | 1019.0 |
| 20260505205003 | 52 | 0 | 0.0 | 0.0 | 0.00 | 0.00 | 0.00 | 84 | 1019.0 |
| 20260505204503 | 52 | 193 | 0.0 | 2.6 | 0.00 | 0.00 | 0.00 | 84 | 1018.9 |
| 20260505204002 | 52 | 193 | 0.9 | 2.6 | 0.00 | 0.00 | 0.00 | 84 | 1018.9 |
| 20260505203502 | 52 | 193 | 0.9 | 2.6 | 0.00 | 0.00 | 0.00 | 84 | 1018.9 |
| 20260505203002 | 52 | 193 | 1.7 | 3.5 | 0.00 | 0.00 | 0.00 | 84 | 1018.9 |
| 20260505202502 | 52 | 193 | 0.9 | 3.5 | 0.00 | 0.00 | 0.00 | 85 | 1018.9 |
| 20260505202024 | 52 | 193 | 0.0 | 2.6 | 0.00 | 0.00 | 0.00 | 84 | 1018.9 |
| 20260505201502 | 52 | 0 | 0.0 | 0.0 | 0.00 | 0.00 | 0.00 | 84 | 1018.9 |
| 20260505201003 | 52 | 0 | 0.0 | 0.0 | 0.00 | 0.00 | 0.00 | 84 | 1018.9 |
| 20260505200503 | 52 | 193 | 0.0 | 1.7 | 0.00 | 0.00 | 0.00 | 84 | 1018.8 |
| 20260505200002 | 52 | 193 | 0.0 | 1.7 | 0.00 | 0.00 | 0.00 | 84 | 1018.8 |
| 20260505195502 | 52 | 193 | 0.0 | 1.7 | 0.00 | 0.00 | 0.00 | 83 | 1018.7 |
| 20260505195002 | 52 | 0 | 0.0 | 0.0 | 0.00 | 0.00 | 0.00 | 83 | 1018.7 |
| 20260505194503 | 52 | 0 | 0.0 | 0.0 | 0.00 | 0.00 | 0.00 | 83 | 1018.7 |
| 20260505194003 | 52 | 0 | 0.0 | 0.0 | 0.00 | 0.00 | 0.00 | 83 | 1018.7 |
| 20260505193502 | 52 | 0 | 0.0 | 0.0 | 0.00 | 0.00 | 0.00 | 83 | 1018.6 |
| 20260505193003 | 52 | 0 | 0.0 | 0.0 | 0.00 | 0.00 | 0.00 | 82 | 1018.7 |
| 20260505192503 | 53 | 0 | 0.0 | 0.0 | 0.00 | 0.00 | 0.00 | 83 | 1018.6 |
| 20260505192002 | 53 | 0 | 0.0 | 0.0 | 0.00 | 0.00 | 0.00 | 82 | 1018.7 |
| 20260505191503 | 53 | 0 | 0.0 | 0.0 | 0.00 | 0.00 | 0.00 | 82 | 1018.6 |
| 20260505191024 | 53 | 0 | 0.0 | 0.0 | 0.00 | 0.00 | 0.00 | 82 | 1018.6 |
| 20260505190524 | 53 | 193 | 0.0 | 1.7 | 0.00 | 0.00 | 0.00 | 81 | 1018.7 |
| 20260505190003 | 53 | 193 | 0.9 | 1.7 | 0.00 | 0.00 | 0.00 | 81 | 1018.7 |
| 20260505185503 | 53 | 193 | 0.9 | 1.7 | 0.00 | 0.00 | 0.00 | 81 | 1018.6 |
| 20260505185003 | 54 | 193 | 0.9 | 2.6 | 0.00 | 0.00 | 0.00 | 81 | 1018.6 |
| 20260505184502 | 54 | 193 | 0.9 | 2.6 | 0.00 | 0.00 | 0.00 | 81 | 1018.6 |
| 20260505184003 | 54 | 193 | 0.9 | 2.6 | 0.00 | 0.00 | 0.00 | 80 | 1018.6 |
| 20260505183503 | 54 | 193 | 0.9 | 3.5 | 0.00 | 0.00 | 0.00 | 80 | 1018.5 |
| 20260505183002 | 54 | 193 | 1.7 | 3.5 | 0.00 | 0.00 | 0.00 | 80 | 1018.6 |
| 20260505182503 | 54 | 193 | 0.9 | 3.5 | 0.00 | 0.00 | 0.00 | 80 | 1018.5 |
| 20260505182003 | 54 | 193 | 0.9 | 3.5 | 0.00 | 0.00 | 0.00 | 80 | 1018.6 |
| 20260505181503 | 54 | 193 | 1.7 | 3.5 | 0.00 | 0.00 | 0.00 | 80 | 1018.5 |
| 20260505181003 | 54 | 193 | 1.7 | 4.3 | 0.00 | 0.01 | 0.00 | 79 | 1018.5 |
| 20260505180503 | 54 | 193 | 1.7 | 4.3 | 0.00 | 0.01 | 0.00 | 79 | 1018.6 |
| 20260505180003 | 54 | 193 | 1.7 | 3.5 | 0.00 | 0.01 | 0.00 | 79 | 1018.6 |
| 20260505175524 | 54 | 193 | 1.7 | 3.5 | 0.00 | 0.01 | 0.00 | 79 | 1018.6 |
| 20260505175003 | 54 | 193 | 1.7 | 4.3 | 0.00 | 0.01 | 0.00 | 79 | 1018.5 |
| 20260505174503 | 55 | 193 | 1.7 | 4.3 | 0.00 | 0.01 | 0.00 | 79 | 1018.5 |
| 20260505174003 | 55 | 193 | 1.7 | 4.3 | 0.00 | 0.01 | 0.00 | 78 | 1018.5 |
| 20260505173503 | 55 | 193 | 1.7 | 4.3 | 0.00 | 0.01 | 0.00 | 78 | 1018.6 |
| 20260505173003 | 55 | 193 | 1.7 | 4.3 | 0.00 | 0.01 | 0.00 | 78 | 1018.6 |
| 20260505172503 | 55 | 193 | 0.9 | 3.5 | 0.00 | 0.01 | 0.00 | 78 | 1018.6 |
| 20260505172024 | 55 | 193 | 0.9 | 3.5 | 0.00 | 0.01 | 0.00 | 78 | 1018.6 |
| 20260505171503 | 55 | 193 | 0.9 | 3.5 | 0.00 | 0.01 | 0.00 | 78 | 1018.7 |
| 20260505171003 | 55 | 193 | 0.9 | 3.5 | 0.00 | 0.01 | 0.00 | 77 | 1018.7 |
| 20260505170503 | 56 | 193 | 0.9 | 3.5 | 0.00 | 0.01 | 0.00 | 77 | 1018.7 |
| 20260505170003 | 56 | 193 | 1.7 | 2.6 | 0.00 | 0.01 | 0.00 | 77 | 1018.8 |
| 20260505165503 | 56 | 193 | 1.7 | 4.3 | 0.00 | 0.01 | 0.00 | 76 | 1018.8 |
| 20260505165003 | 56 | 193 | 1.7 | 4.3 | 0.00 | 0.01 | 0.00 | 76 | 1018.9 |
| 20260505164503 | 56 | 193 | 1.7 | 4.3 | 0.00 | 0.01 | 0.00 | 76 | 1018.8 |
| 20260505164024 | 56 | 193 | 1.7 | 4.3 | 0.00 | 0.01 | 0.00 | 76 | 1018.8 |
| 20260505163503 | 56 | 193 | 1.7 | 7.0 | 0.00 | 0.01 | 0.00 | 75 | 1018.9 |
| 20260505163003 | 57 | 194 | 2.6 | 7.0 | 0.00 | 0.01 | 0.00 | 75 | 1018.9 |
| 20260505162503 | 57 | 194 | 2.6 | 4.3 | 0.00 | 0.01 | 0.00 | 75 | 1018.9 |
| 20260505162003 | 57 | 194 | 2.6 | 7.8 | 0.00 | 0.01 | 0.00 | 75 | 1018.9 |
| 20260505161503 | 56 | 193 | 2.6 | 7.8 | 0.00 | 0.01 | 0.00 | 76 | 1018.9 |
| 20260505161003 | 56 | 191 | 1.7 | 4.3 | 0.00 | 0.01 | 0.00 | 76 | 1019.0 |
| 20260505160503 | 56 | 191 | 1.7 | 4.3 | 0.00 | 0.01 | 0.00 | 76 | 1019.0 |
| 20260505153024 | 57 | 191 | 2.6 | 6.1 | 0.00 | 0.01 | 0.00 | 76 | 1019.3 |
| 20260505152503 | 57 | 191 | 2.6 | 6.1 | 0.00 | 0.01 | 0.00 | 76 | 1019.3 |
| 20260505152003 | 57 | 190 | 1.7 | 4.3 | 0.00 | 0.01 | 0.00 | 76 | 1019.4 |
| 20260505151503 | 57 | 190 | 2.6 | 4.3 | 0.00 | 0.01 | 0.00 | 76 | 1019.4 |
| 20260505151003 | 57 | 190 | 2.6 | 4.3 | 0.00 | 0.01 | 0.00 | 76 | 1019.4 |
| 20260505150503 | 57 | 190 | 2.6 | 4.3 | 0.00 | 0.01 | 0.00 | 76 | 1019.5 |
| 20260505140503 | 58 | 185 | 1.7 | 3.5 | 0.00 | 0.02 | 0.00 | 76 | 1019.6 |
| 20260505125003 | 57 | 0 | 0.0 | 0.0 | 0.00 | 0.02 | 0.02 | 80 | 1019.7 |
| 20260505124524 | 57 | 0 | 0.0 | 0.0 | 0.00 | 0.02 | 0.02 | 80 | 1019.7 |
| 20260505124003 | 57 | 0 | 0.0 | 0.0 | 0.00 | 0.02 | 0.02 | 80 | 1019.7 |
| 20260505123503 | 57 | 0 | 0.0 | 0.0 | 0.00 | 0.02 | 0.02 | 80 | 1019.7 |
| 20260505123003 | 58 | 0 | 0.0 | 0.0 | 0.00 | 0.02 | 0.02 | 80 | 1019.7 |
| 20260505122503 | 58 | 0 | 0.0 | 0.0 | 0.00 | 0.02 | 0.02 | 79 | 1019.7 |
| 20260505122003 | 58 | 185 | 0.0 | 2.6 | 0.00 | 0.02 | 0.02 | 79 | 1019.8 |
| 20260505121503 | 58 | 185 | 0.0 | 2.6 | 0.00 | 0.02 | 0.02 | 79 | 1019.8 |
| 20260505121003 | 58 | 185 | 0.0 | 2.6 | 0.00 | 0.02 | 0.02 | 78 | 1019.8 |
| 20260505120503 | 58 | 185 | 0.9 | 2.6 | 0.00 | 0.02 | 0.02 | 78 | 1019.8 |
| 20260505120024 | 59 | 185 | 1.7 | 4.3 | 0.00 | 0.02 | 0.02 | 78 | 1019.8 |
| 20260505115503 | 59 | 185 | 1.7 | 4.3 | 0.00 | 0.02 | 0.02 | 78 | 1019.7 |
| 20260505115003 | 59 | 185 | 1.7 | 3.5 | 0.00 | 0.02 | 0.02 | 78 | 1019.7 |
| 20260505114503 | 59 | 185 | 1.7 | 3.5 | 0.00 | 0.02 | 0.02 | 78 | 1019.7 |
| 20260505114003 | 59 | 185 | 1.7 | 2.6 | 0.00 | 0.02 | 0.02 | 78 | 1019.6 |
| 20260505113503 | 59 | 185 | 0.9 | 2.6 | 0.00 | 0.02 | 0.02 | 78 | 1019.5 |
| 20260505113003 | 59 | 185 | 0.0 | 2.6 | 0.00 | 0.02 | 0.02 | 78 | 1019.6 |
| 20260505112503 | 59 | 0 | 0.0 | 0.0 | 0.00 | 0.02 | 0.02 | 78 | 1019.5 |
| 20260505112003 | 60 | 185 | 0.0 | 1.7 | 0.00 | 0.02 | 0.02 | 78 | 1019.4 |
| 20260505111503 | 59 | 185 | 0.9 | 1.7 | 0.00 | 0.02 | 0.02 | 78 | 1019.4 |
| 20260505111003 | 60 | 185 | 0.9 | 1.7 | 0.00 | 0.02 | 0.02 | 78 | 1019.4 |
| 20260505110503 | 60 | 0 | 0.0 | 0.0 | 0.00 | 0.02 | 0.02 | 77 | 1019.4 |
| 20260505102024 | 60 | 0 | 0.0 | 0.0 | 0.00 | 0.02 | 0.02 | 77 | 1019.1 |
| 20260505101503 | 60 | 0 | 0.0 | 0.0 | 0.00 | 0.02 | 0.02 | 77 | 1019.1 |
| 20260505101003 | 60 | 0 | 0.0 | 0.0 | 0.00 | 0.02 | 0.02 | 77 | 1019.0 |
| 20260505100503 | 60 | 0 | 0.0 | 0.0 | 0.00 | 0.02 | 0.02 | 76 | 1019.0 |
| 20260505100003 | 60 | 0 | 0.0 | 0.0 | 0.00 | 0.02 | 0.02 | 76 | 1019.0 |
| 20260505095503 | 60 | 0 | 0.0 | 0.0 | 0.00 | 0.02 | 0.02 | 76 | 1019.0 |
| 20260505095003 | 60 | 0 | 0.0 | 0.0 | 0.00 | 0.02 | 0.02 | 76 | 1019.0 |
| 20260505094503 | 61 | 185 | 0.0 | 1.7 | 0.00 | 0.02 | 0.02 | 75 | 1019.0 |
| 20260505094003 | 61 | 185 | 0.0 | 1.7 | 0.00 | 0.02 | 0.02 | 75 | 1018.9 |
| 20260505093503 | 61 | 185 | 0.0 | 0.9 | 0.00 | 0.02 | 0.02 | 75 | 1018.8 |
| 20260505093003 | 61 | 185 | 0.0 | 0.9 | 0.00 | 0.02 | 0.02 | 74 | 1018.7 |
| 20260505092503 | 62 | 185 | 0.0 | 0.9 | 0.00 | 0.02 | 0.02 | 75 | 1018.7 |
| 20260505092003 | 62 | 0 | 0.0 | 0.0 | 0.00 | 0.02 | 0.02 | 74 | 1018.6 |
| 20260505091503 | 62 | 185 | 0.0 | 1.7 | 0.00 | 0.02 | 0.02 | 74 | 1018.5 |
| 20260505091003 | 62 | 185 | 0.9 | 3.5 | 0.00 | 0.02 | 0.02 | 74 | 1018.4 |
| 20260505090503 | 62 | 185 | 0.9 | 3.5 | 0.00 | 0.02 | 0.02 | 74 | 1018.4 |
| 20260505090003 | 62 | 185 | 0.9 | 2.6 | 0.00 | 0.02 | 0.02 | 74 | 1018.3 |
| 20260505085503 | 62 | 185 | 0.9 | 2.6 | 0.00 | 0.02 | 0.02 | 74 | 1018.1 |
| 20260505085003 | 62 | 185 | 0.0 | 2.6 | 0.00 | 0.02 | 0.02 | 75 | 1018.1 |
| 20260505084524 | 62 | 185 | 0.9 | 2.6 | 0.00 | 0.02 | 0.02 | 75 | 1018.0 |
| 20260505084003 | 62 | 185 | 0.0 | 2.6 | 0.00 | 0.02 | 0.02 | 75 | 1018.0 |
| 20260505083503 | 62 | 185 | 0.9 | 2.6 | 0.00 | 0.02 | 0.02 | 75 | 1017.9 |
| 20260505083003 | 62 | 185 | 0.0 | 2.6 | 0.00 | 0.02 | 0.02 | 74 | 1017.8 |
| 20260505082503 | 62 | 0 | 0.0 | 0.0 | 0.00 | 0.02 | 0.02 | 73 | 1017.7 |
| 20260505082024 | 62 | 185 | 0.0 | 1.7 | 0.00 | 0.02 | 0.02 | 72 | 1017.7 |
| 20260505081503 | 62 | 185 | 0.9 | 2.6 | 0.00 | 0.02 | 0.02 | 71 | 1017.7 |
| 20260505081003 | 63 | 185 | 0.9 | 2.6 | 0.00 | 0.02 | 0.02 | 70 | 1017.7 |
| 20260505080503 | 63 | 185 | 0.0 | 1.7 | 0.00 | 0.02 | 0.02 | 68 | 1017.7 |
| 20260505080024 | 63 | 185 | 0.0 | 1.7 | 0.00 | 0.02 | 0.02 | 66 | 1017.5 |
| 20260505075503 | 64 | 185 | 0.9 | 2.6 | 0.00 | 0.02 | 0.02 | 65 | 1017.4 |
| 20260505075003 | 64 | 185 | 0.9 | 2.6 | 0.00 | 0.02 | 0.02 | 64 | 1017.4 |
| 20260505074503 | 64 | 185 | 0.0 | 2.6 | 0.00 | 0.02 | 0.02 | 63 | 1017.3 |
| 20260505074003 | 64 | 185 | 0.0 | 1.7 | 0.00 | 0.02 | 0.02 | 61 | 1017.2 |
| 20260505073503 | 65 | 185 | 0.9 | 1.7 | 0.00 | 0.02 | 0.02 | 62 | 1016.9 |
| 20260505073003 | 65 | 185 | 0.9 | 2.6 | 0.00 | 0.02 | 0.02 | 61 | 1016.8 |
| 20260505072503 | 65 | 185 | 0.0 | 2.6 | 0.00 | 0.02 | 0.02 | 61 | 1016.8 |
| 20260505072003 | 65 | 185 | 0.0 | 1.7 | 0.00 | 0.02 | 0.02 | 61 | 1016.7 |
| 20260505071524 | 66 | 185 | 0.0 | 2.6 | 0.00 | 0.02 | 0.02 | 60 | 1016.6 |
| 20260505071003 | 66 | 185 | 0.0 | 2.6 | 0.00 | 0.02 | 0.02 | 60 | 1016.4 |
| 20260505070503 | 66 | 185 | 0.0 | 2.6 | 0.00 | 0.02 | 0.02 | 59 | 1016.5 |
| 20260505070003 | 67 | 185 | 0.0 | 2.6 | 0.00 | 0.02 | 0.02 | 59 | 1016.5 |
| 20260505065503 | 67 | 0 | 0.0 | 0.0 | 0.00 | 0.02 | 0.02 | 58 | 1016.5 |
| 20260505065003 | 68 | 185 | 0.0 | 2.6 | 0.00 | 0.02 | 0.02 | 58 | 1016.5 |
| 20260505064503 | 68 | 185 | 0.0 | 2.6 | 0.00 | 0.02 | 0.02 | 57 | 1016.3 |
| 20260505064003 | 68 | 185 | 0.9 | 4.3 | 0.00 | 0.02 | 0.02 | 56 | 1016.3 |
| 20260505063503 | 68 | 185 | 1.7 | 4.3 | 0.00 | 0.02 | 0.02 | 55 | 1016.2 |
| 20260505063003 | 68 | 185 | 1.7 | 4.3 | 0.00 | 0.02 | 0.02 | 56 | 1016.0 |
| 20260505062524 | 69 | 185 | 0.9 | 4.3 | 0.00 | 0.02 | 0.02 | 56 | 1016.0 |
| 20260505062003 | 69 | 185 | 0.9 | 4.3 | 0.00 | 0.02 | 0.02 | 55 | 1016.1 |
| 20260505061503 | 69 | 185 | 1.7 | 4.3 | 0.00 | 0.02 | 0.02 | 55 | 1016.1 |
| 20260505061003 | 69 | 185 | 2.6 | 7.0 | 0.00 | 0.02 | 0.02 | 54 | 1016.1 |
| 20260505060503 | 69 | 183 | 2.6 | 7.0 | 0.00 | 0.02 | 0.02 | 54 | 1016.1 |
| 20260505060024 | 69 | 182 | 1.7 | 7.8 | 0.00 | 0.02 | 0.02 | 53 | 1015.9 |
| 20260505055503 | 70 | 181 | 1.7 | 7.8 | 0.00 | 0.02 | 0.02 | 52 | 1015.8 |
| 20260505055003 | 70 | 178 | 1.7 | 4.3 | 0.00 | 0.02 | 0.02 | 52 | 1015.8 |
| 20260505054503 | 70 | 185 | 1.7 | 6.1 | 0.00 | 0.02 | 0.02 | 53 | 1015.8 |
| 20260505054004 | 70 | 196 | 1.7 | 6.1 | 0.00 | 0.02 | 0.02 | 53 | 1015.7 |
| 20260505053503 | 70 | 213 | 0.9 | 4.3 | 0.00 | 0.02 | 0.02 | 55 | 1015.7 |
| 20260505053003 | 70 | 218 | 1.7 | 4.3 | 0.00 | 0.02 | 0.02 | 54 | 1015.7 |
| 20260505052503 | 70 | 202 | 1.7 | 7.0 | 0.00 | 0.02 | 0.02 | 53 | 1015.7 |
| 20260505052003 | 70 | 188 | 2.6 | 7.0 | 0.00 | 0.02 | 0.02 | 53 | 1015.7 |
| 20260505051503 | 70 | 187 | 2.6 | 7.0 | 0.00 | 0.02 | 0.02 | 52 | 1015.7 |
| 20260505051024 | 70 | 192 | 2.6 | 7.0 | 0.00 | 0.02 | 0.02 | 52 | 1015.8 |
| 20260505050503 | 70 | 206 | 1.7 | 4.3 | 0.00 | 0.02 | 0.02 | 53 | 1015.8 |
| 20260505041503 | 72 | 233 | 1.7 | 4.3 | 0.00 | 0.02 | 0.02 | 54 | 1015.4 |
| 20260505041003 | 72 | 242 | 1.7 | 4.3 | 0.00 | 0.02 | 0.02 | 53 | 1015.4 |
| 20260505040503 | 72 | 255 | 1.7 | 5.2 | 0.00 | 0.02 | 0.02 | 51 | 1015.3 |
| 20260505040003 | 72 | 217 | 2.6 | 7.0 | 0.00 | 0.02 | 0.02 | 53 | 1015.3 |
| 20260505035503 | 72 | 196 | 2.6 | 7.8 | 0.00 | 0.02 | 0.02 | 53 | 1015.2 |
| 20260505035003 | 72 | 223 | 2.6 | 7.8 | 0.00 | 0.02 | 0.02 | 53 | 1015.2 |
| 20260505034503 | 72 | 240 | 1.7 | 7.8 | 0.00 | 0.02 | 0.02 | 53 | 1015.3 |
| 20260505034003 | 72 | 223 | 1.7 | 5.2 | 0.00 | 0.02 | 0.02 | 54 | 1015.3 |
| 20260505033503 | 72 | 235 | 1.7 | 5.2 | 0.00 | 0.02 | 0.02 | 54 | 1015.4 |
| 20260505033024 | 72 | 253 | 0.9 | 3.5 | 0.00 | 0.02 | 0.02 | 55 | 1015.4 |
| 20260505032503 | 72 | 216 | 0.9 | 4.3 | 0.00 | 0.02 | 0.02 | 55 | 1015.5 |
| 20260505032003 | 72 | 201 | 1.7 | 5.2 | 0.00 | 0.02 | 0.02 | 57 | 1015.5 |
| 20260505031503 | 71 | 216 | 1.7 | 6.1 | 0.00 | 0.02 | 0.02 | 57 | 1015.4 |
| 20260505031024 | 71 | 234 | 1.7 | 7.0 | 0.00 | 0.02 | 0.02 | 55 | 1015.7 |
| 20260505030503 | 71 | 255 | 1.7 | 7.0 | 0.00 | 0.02 | 0.02 | 57 | 1015.8 |
| 20260505030024 | 71 | 226 | 1.7 | 7.0 | 0.00 | 0.02 | 0.02 | 58 | 1015.8 |
| 20260505025524 | 71 | 227 | 1.7 | 7.0 | 0.00 | 0.02 | 0.02 | 56 | 1015.8 |
| 20260505025003 | 71 | 223 | 1.7 | 4.3 | 0.00 | 0.02 | 0.02 | 58 | 1015.9 |
| 20260505024524 | 71 | 216 | 1.7 | 7.0 | 0.00 | 0.02 | 0.02 | 58 | 1015.8 |
| 20260505024003 | 70 | 260 | 1.7 | 7.0 | 0.00 | 0.02 | 0.02 | 59 | 1016.0 |
| 20260505023503 | 70 | 270 | 1.7 | 6.1 | 0.00 | 0.02 | 0.02 | 60 | 1016.0 |
| 20260505023003 | 70 | 222 | 1.7 | 6.1 | 0.00 | 0.02 | 0.02 | 60 | 1016.0 |
| 20260505022503 | 70 | 200 | 2.6 | 7.8 | 0.00 | 0.03 | 0.02 | 61 | 1016.1 |
| 20260505022024 | 70 | 214 | 2.6 | 7.8 | 0.00 | 0.03 | 0.02 | 59 | 1016.2 |
| 20260505021503 | 69 | 248 | 1.7 | 7.0 | 0.00 | 0.03 | 0.02 | 61 | 1016.2 |
| 20260505021003 | 69 | 245 | 1.7 | 7.0 | 0.00 | 0.04 | 0.02 | 61 | 1016.3 |
| 20260505020503 | 69 | 213 | 1.7 | 6.1 | 0.00 | 0.04 | 0.02 | 61 | 1016.2 |
| 20260505020003 | 69 | 220 | 2.6 | 7.0 | 0.00 | 0.04 | 0.02 | 61 | 1016.2 |
| 20260505015503 | 69 | 226 | 1.7 | 7.0 | 0.00 | 0.05 | 0.02 | 61 | 1016.3 |
| 20260505015003 | 69 | 201 | 1.7 | 7.0 | 0.00 | 0.05 | 0.02 | 62 | 1016.4 |
| 20260505014503 | 68 | 218 | 1.7 | 7.0 | 0.00 | 0.06 | 0.02 | 61 | 1016.6 |
| 20260505014003 | 68 | 246 | 1.7 | 7.0 | 0.00 | 0.06 | 0.02 | 62 | 1016.6 |
| 20260505013503 | 68 | 241 | 1.7 | 9.6 | 0.00 | 0.06 | 0.02 | 62 | 1016.5 |
| 20260505013003 | 68 | 223 | 1.7 | 9.6 | 0.00 | 0.06 | 0.02 | 63 | 1016.8 |
| 20260505012503 | 68 | 250 | 1.7 | 7.8 | 0.00 | 0.07 | 0.02 | 63 | 1016.9 |
| 20260505012003 | 68 | 267 | 1.7 | 7.0 | 0.00 | 0.07 | 0.02 | 63 | 1016.9 |
| 20260505011524 | 68 | 256 | 1.7 | 4.3 | 0.00 | 0.07 | 0.02 | 61 | 1016.9 |
| 20260505011003 | 68 | 279 | 1.7 | 6.1 | 0.00 | 0.07 | 0.02 | 63 | 1016.9 |
| 20260505010503 | 68 | 273 | 1.7 | 6.1 | 0.00 | 0.07 | 0.02 | 64 | 1016.9 |
| 20260505010003 | 68 | 271 | 1.7 | 5.2 | 0.00 | 0.07 | 0.02 | 65 | 1017.1 |
| 20260505005524 | 67 | 229 | 1.7 | 7.0 | 0.00 | 0.07 | 0.02 | 64 | 1017.1 |
| 20260505005004 | 67 | 187 | 2.6 | 7.0 | 0.00 | 0.07 | 0.02 | 64 | 1017.1 |
| 20260505004524 | 67 | 199 | 2.6 | 7.8 | 0.00 | 0.07 | 0.02 | 64 | 1017.2 |
| 20260505004003 | 66 | 223 | 2.6 | 7.8 | 0.00 | 0.07 | 0.02 | 65 | 1017.3 |
| 20260505003503 | 66 | 260 | 1.7 | 7.0 | 0.00 | 0.07 | 0.02 | 67 | 1017.3 |
| 20260505003024 | 66 | 237 | 1.7 | 7.0 | 0.00 | 0.07 | 0.02 | 67 | 1017.4 |
| 20260505002503 | 66 | 224 | 1.7 | 7.0 | 0.00 | 0.07 | 0.02 | 67 | 1017.5 |
| 20260505002003 | 66 | 246 | 1.7 | 8.7 | 0.00 | 0.07 | 0.02 | 66 | 1017.6 |
| 20260505001503 | 65 | 232 | 2.6 | 10.4 | 0.00 | 0.07 | 0.02 | 66 | 1017.6 |
| 20260505001003 | 65 | 204 | 2.6 | 10.4 | 0.00 | 0.07 | 0.02 | 66 | 1017.5 |
| 20260505000503 | 65 | 219 | 1.7 | 7.8 | 0.00 | 0.07 | 0.02 | 66 | 1017.7 |
| 20260505000003 | 65 | 300 | 1.7 | 7.8 | 0.00 | 0.07 | 0.02 | 67 | 1017.7 |
| 20260504235503 | 65 | 312 | 0.9 | 3.5 | 0.00 | 0.07 | 0.02 | 68 | 1017.7 |
| 20260504235003 | 65 | 312 | 0.9 | 4.3 | 0.00 | 0.07 | 0.02 | 69 | 1017.7 |
| 20260504234503 | 64 | 313 | 0.9 | 4.3 | 0.00 | 0.07 | 0.02 | 69 | 1017.5 |
| 20260504234024 | 64 | 314 | 0.9 | 4.3 | 0.00 | 0.07 | 0.02 | 70 | 1017.7 |
| 20260504233503 | 64 | 316 | 0.9 | 4.3 | 0.00 | 0.07 | 0.02 | 71 | 1017.7 |
| 20260504233003 | 64 | 318 | 0.9 | 4.3 | 0.00 | 0.07 | 0.02 | 72 | 1017.7 |
| 20260504232503 | 63 | 323 | 0.9 | 4.3 | 0.00 | 0.07 | 0.02 | 73 | 1017.5 |
| 20260504232003 | 63 | 334 | 0.9 | 4.3 | 0.00 | 0.07 | 0.02 | 74 | 1017.6 |
| 20260504231503 | 62 | 341 | 0.9 | 3.5 | 0.00 | 0.07 | 0.02 | 75 | 1017.7 |
| 20260504231003 | 62 | 345 | 0.9 | 4.3 | 0.00 | 0.07 | 0.02 | 76 | 1017.7 |
| 20260504230503 | 61 | 346 | 0.9 | 4.3 | 0.00 | 0.07 | 0.02 | 77 | 1017.8 |
| 20260504230003 | 60 | 349 | 0.0 | 3.5 | 0.00 | 0.07 | 0.02 | 81 | 1017.8 |
| 20260504225503 | 59 | 349 | 0.0 | 3.5 | 0.00 | 0.07 | 0.02 | 82 | 1017.8 |
| 20260504225003 | 58 | 349 | 0.9 | 4.3 | 0.00 | 0.07 | 0.02 | 85 | 1017.7 |
| 20260504224524 | 58 | 350 | 0.9 | 4.3 | 0.00 | 0.07 | 0.02 | 86 | 1017.7 |